sensor_id;sensor_type;location;lat;lon;timestamp;temperature;humidity
28374;DHT22;15616;40.148;-102.718;2023-03-14T00:01:58;20.60;48.30
28374;DHT22;15616;40.148;-102.718;2023-03-14T00:04:24;20.60;48.30
28374;DHT22;15616;40.148;-102.718;2023-03-14T00:06:50;20.60;48.30
28374;DHT22;15616;40.148;-102.718;2023-03-14T00:09:16;20.60;48.40
28374;DHT22;15616;40.148;-102.718;2023-03-14T00:11:42;20.60;48.30
28374;DHT22;15616;40.148;-102.718;2023-03-14T00:14:09;20.60;48.30
28374;DHT22;15616;40.148;-102.718;2023-03-14T00:16:35;20.60;48.30
28374;DHT22;15616;40.148;-102.718;2023-03-14T00:19:01;20.60;48.30
28374;DHT22;15616;40.148;-102.718;2023-03-14T00:21:27;20.60;48.30
28374;DHT22;15616;40.148;-102.718;2023-03-14T00:23:53;20.60;48.30
28374;DHT22;15616;40.148;-102.718;2023-03-14T00:26:20;20.60;48.30
28374;DHT22;15616;40.148;-102.718;2023-03-14T00:28:51;20.60;48.30
28374;DHT22;15616;40.148;-102.718;2023-03-14T00:31:17;20.60;48.30
28374;DHT22;15616;40.148;-102.718;2023-03-14T00:33:44;20.60;48.30
28374;DHT22;15616;40.148;-102.718;2023-03-14T00:36:13;20.60;48.40
28374;DHT22;15616;40.148;-102.718;2023-03-14T00:38:42;20.60;48.30
28374;DHT22;15616;40.148;-102.718;2023-03-14T00:41:10;20.60;48.30
28374;DHT22;15616;40.148;-102.718;2023-03-14T00:43:36;20.60;48.30
28374;DHT22;15616;40.148;-102.718;2023-03-14T00:46:03;20.60;48.30
28374;DHT22;15616;40.148;-102.718;2023-03-14T00:48:29;20.60;48.30
28374;DHT22;15616;40.148;-102.718;2023-03-14T00:50:55;20.60;48.30
28374;DHT22;15616;40.148;-102.718;2023-03-14T00:53:21;20.60;48.40
28374;DHT22;15616;40.148;-102.718;2023-03-14T00:55:47;20.60;48.40
28374;DHT22;15616;40.148;-102.718;2023-03-14T00:58:14;20.60;48.40
28374;DHT22;15616;40.148;-102.718;2023-03-14T01:00:41;20.60;48.40
28374;DHT22;15616;40.148;-102.718;2023-03-14T01:03:08;20.60;48.30
28374;DHT22;15616;40.148;-102.718;2023-03-14T01:05:34;20.60;49.10
28374;DHT22;15616;40.148;-102.718;2023-03-14T01:08:01;20.60;48.40
28374;DHT22;15616;40.148;-102.718;2023-03-14T01:10:27;20.60;48.40
28374;DHT22;15616;40.148;-102.718;2023-03-14T01:12:53;20.60;48.40
28374;DHT22;15616;40.148;-102.718;2023-03-14T01:15:19;20.60;48.40
28374;DHT22;15616;40.148;-102.718;2023-03-14T01:17:46;20.60;48.40
28374;DHT22;15616;40.148;-102.718;2023-03-14T01:20:13;20.60;48.40
28374;DHT22;15616;40.148;-102.718;2023-03-14T01:22:41;20.60;48.50
28374;DHT22;15616;40.148;-102.718;2023-03-14T01:25:11;20.60;48.50
28374;DHT22;15616;40.148;-102.718;2023-03-14T01:27:37;20.60;48.40
28374;DHT22;15616;40.148;-102.718;2023-03-14T01:30:04;20.50;48.40
28374;DHT22;15616;40.148;-102.718;2023-03-14T01:32:30;20.60;48.50
28374;DHT22;15616;40.148;-102.718;2023-03-14T01:34:56;20.60;48.50
28374;DHT22;15616;40.148;-102.718;2023-03-14T01:37:22;20.60;48.50
28374;DHT22;15616;40.148;-102.718;2023-03-14T01:39:48;20.50;48.50
28374;DHT22;15616;40.148;-102.718;2023-03-14T01:42:15;20.50;48.50
28374;DHT22;15616;40.148;-102.718;2023-03-14T01:44:55;20.50;48.40
28374;DHT22;15616;40.148;-102.718;2023-03-14T01:47:22;20.50;48.40
28374;DHT22;15616;40.148;-102.718;2023-03-14T01:50:05;20.50;48.50
28374;DHT22;15616;40.148;-102.718;2023-03-14T01:52:39;20.60;48.50
28374;DHT22;15616;40.148;-102.718;2023-03-14T01:55:20;20.50;48.50
28374;DHT22;15616;40.148;-102.718;2023-03-14T01:57:58;20.50;48.50
28374;DHT22;15616;40.148;-102.718;2023-03-14T02:00:25;20.60;48.50
28374;DHT22;15616;40.148;-102.718;2023-03-14T02:03:02;20.50;48.50
28374;DHT22;15616;40.148;-102.718;2023-03-14T02:05:35;20.50;48.50
28374;DHT22;15616;40.148;-102.718;2023-03-14T02:08:05;20.50;48.50
28374;DHT22;15616;40.148;-102.718;2023-03-14T02:10:41;20.50;48.50
28374;DHT22;15616;40.148;-102.718;2023-03-14T02:13:07;20.50;48.50
28374;DHT22;15616;40.148;-102.718;2023-03-14T02:15:33;20.50;48.50
28374;DHT22;15616;40.148;-102.718;2023-03-14T02:18:01;20.50;48.50
28374;DHT22;15616;40.148;-102.718;2023-03-14T02:20:35;20.50;48.50
28374;DHT22;15616;40.148;-102.718;2023-03-14T02:23:04;20.50;48.50
28374;DHT22;15616;40.148;-102.718;2023-03-14T02:25:57;20.50;48.50
28374;DHT22;15616;40.148;-102.718;2023-03-14T02:28:26;20.60;48.50
28374;DHT22;15616;40.148;-102.718;2023-03-14T02:30:52;20.50;48.50
28374;DHT22;15616;40.148;-102.718;2023-03-14T02:33:20;20.50;48.50
28374;DHT22;15616;40.148;-102.718;2023-03-14T02:40:50;20.50;48.60
28374;DHT22;15616;40.148;-102.718;2023-03-14T02:43:16;20.50;48.60
28374;DHT22;15616;40.148;-102.718;2023-03-14T02:45:44;20.50;48.50
28374;DHT22;15616;40.148;-102.718;2023-03-14T02:48:27;20.50;48.50
28374;DHT22;15616;40.148;-102.718;2023-03-14T02:50:56;20.50;48.60
28374;DHT22;15616;40.148;-102.718;2023-03-14T02:53:32;20.50;48.60
28374;DHT22;15616;40.148;-102.718;2023-03-14T02:55:58;20.50;48.60
28374;DHT22;15616;40.148;-102.718;2023-03-14T02:58:25;20.40;48.50
28374;DHT22;15616;40.148;-102.718;2023-03-14T03:00:51;20.50;48.60
28374;DHT22;15616;40.148;-102.718;2023-03-14T03:03:17;20.50;48.60
28374;DHT22;15616;40.148;-102.718;2023-03-14T03:05:43;20.50;48.60
28374;DHT22;15616;40.148;-102.718;2023-03-14T03:08:10;20.40;48.50
28374;DHT22;15616;40.148;-102.718;2023-03-14T03:10:36;20.50;48.60
28374;DHT22;15616;40.148;-102.718;2023-03-14T03:13:02;20.40;48.60
28374;DHT22;15616;40.148;-102.718;2023-03-14T03:15:28;20.40;48.60
28374;DHT22;15616;40.148;-102.718;2023-03-14T03:17:55;20.40;48.60
28374;DHT22;15616;40.148;-102.718;2023-03-14T03:20:21;20.40;48.60
28374;DHT22;15616;40.148;-102.718;2023-03-14T03:22:46;20.40;48.60
28374;DHT22;15616;40.148;-102.718;2023-03-14T03:25:12;20.40;48.60
28374;DHT22;15616;40.148;-102.718;2023-03-14T03:27:38;20.40;48.60
28374;DHT22;15616;40.148;-102.718;2023-03-14T03:30:06;20.40;48.60
28374;DHT22;15616;40.148;-102.718;2023-03-14T03:32:32;20.40;48.60
28374;DHT22;15616;40.148;-102.718;2023-03-14T03:34:58;20.40;48.60
28374;DHT22;15616;40.148;-102.718;2023-03-14T03:37:24;20.40;48.60
28374;DHT22;15616;40.148;-102.718;2023-03-14T03:39:51;20.40;48.60
28374;DHT22;15616;40.148;-102.718;2023-03-14T03:42:18;20.40;48.70
28374;DHT22;15616;40.148;-102.718;2023-03-14T03:44:44;20.40;48.60
28374;DHT22;15616;40.148;-102.718;2023-03-14T03:47:10;20.40;48.60
28374;DHT22;15616;40.148;-102.718;2023-03-14T03:49:36;20.40;48.60
28374;DHT22;15616;40.148;-102.718;2023-03-14T03:52:02;20.40;48.60
28374;DHT22;15616;40.148;-102.718;2023-03-14T03:54:28;20.40;48.60
28374;DHT22;15616;40.148;-102.718;2023-03-14T03:56:54;20.40;48.60
28374;DHT22;15616;40.148;-102.718;2023-03-14T03:59:20;20.40;48.60
28374;DHT22;15616;40.148;-102.718;2023-03-14T04:01:46;20.40;48.60
28374;DHT22;15616;40.148;-102.718;2023-03-14T04:04:12;20.40;48.60
28374;DHT22;15616;40.148;-102.718;2023-03-14T04:06:38;20.40;48.60
28374;DHT22;15616;40.148;-102.718;2023-03-14T04:09:04;20.40;48.60
28374;DHT22;15616;40.148;-102.718;2023-03-14T04:11:30;20.40;48.60
28374;DHT22;15616;40.148;-102.718;2023-03-14T04:13:56;20.40;48.60
28374;DHT22;15616;40.148;-102.718;2023-03-14T04:16:24;20.40;49.30
28374;DHT22;15616;40.148;-102.718;2023-03-14T04:18:51;20.40;48.60
28374;DHT22;15616;40.148;-102.718;2023-03-14T04:21:17;20.40;48.60
28374;DHT22;15616;40.148;-102.718;2023-03-14T04:23:43;20.40;48.60
28374;DHT22;15616;40.148;-102.718;2023-03-14T04:26:09;20.40;48.60
28374;DHT22;15616;40.148;-102.718;2023-03-14T04:28:36;20.40;48.60
28374;DHT22;15616;40.148;-102.718;2023-03-14T04:31:13;20.40;48.60
28374;DHT22;15616;40.148;-102.718;2023-03-14T04:33:39;20.40;48.60
28374;DHT22;15616;40.148;-102.718;2023-03-14T04:36:06;20.40;48.60
28374;DHT22;15616;40.148;-102.718;2023-03-14T04:38:33;20.40;48.60
28374;DHT22;15616;40.148;-102.718;2023-03-14T04:40:59;20.40;48.70
28374;DHT22;15616;40.148;-102.718;2023-03-14T04:43:26;20.40;48.70
28374;DHT22;15616;40.148;-102.718;2023-03-14T04:45:54;20.40;48.70
28374;DHT22;15616;40.148;-102.718;2023-03-14T04:48:20;20.40;48.70
28374;DHT22;15616;40.148;-102.718;2023-03-14T04:50:47;20.40;48.70
28374;DHT22;15616;40.148;-102.718;2023-03-14T04:53:13;20.40;48.70
28374;DHT22;15616;40.148;-102.718;2023-03-14T04:55:39;20.40;48.60
28374;DHT22;15616;40.148;-102.718;2023-03-14T04:58:05;20.40;48.60
28374;DHT22;15616;40.148;-102.718;2023-03-14T05:00:31;20.40;48.70
28374;DHT22;15616;40.148;-102.718;2023-03-14T05:02:57;20.40;48.70
28374;DHT22;15616;40.148;-102.718;2023-03-14T05:05:23;20.40;48.70
28374;DHT22;15616;40.148;-102.718;2023-03-14T05:07:49;20.40;48.70
28374;DHT22;15616;40.148;-102.718;2023-03-14T05:10:15;20.40;48.70
28374;DHT22;15616;40.148;-102.718;2023-03-14T05:12:41;20.30;48.70
28374;DHT22;15616;40.148;-102.718;2023-03-14T05:15:07;20.30;48.80
28374;DHT22;15616;40.148;-102.718;2023-03-14T05:17:33;20.30;48.90
28374;DHT22;15616;40.148;-102.718;2023-03-14T05:19:59;20.20;48.90
28374;DHT22;15616;40.148;-102.718;2023-03-14T05:22:25;20.30;48.90
28374;DHT22;15616;40.148;-102.718;2023-03-14T05:24:51;20.30;48.90
28374;DHT22;15616;40.148;-102.718;2023-03-14T05:27:22;20.20;48.90
28374;DHT22;15616;40.148;-102.718;2023-03-14T05:29:48;20.20;48.90
28374;DHT22;15616;40.148;-102.718;2023-03-14T05:32:14;20.30;48.90
28374;DHT22;15616;40.148;-102.718;2023-03-14T05:34:40;20.30;48.90
28374;DHT22;15616;40.148;-102.718;2023-03-14T05:37:06;20.30;48.90
28374;DHT22;15616;40.148;-102.718;2023-03-14T05:39:32;20.20;48.90
28374;DHT22;15616;40.148;-102.718;2023-03-14T05:41:58;20.20;48.80
28374;DHT22;15616;40.148;-102.718;2023-03-14T05:44:24;20.30;48.90
28374;DHT22;15616;40.148;-102.718;2023-03-14T05:46:50;20.30;48.80
28374;DHT22;15616;40.148;-102.718;2023-03-14T05:49:16;20.30;48.70
28374;DHT22;15616;40.148;-102.718;2023-03-14T05:51:42;20.40;48.70
28374;DHT22;15616;40.148;-102.718;2023-03-14T05:54:08;20.40;48.50
28374;DHT22;15616;40.148;-102.718;2023-03-14T05:56:34;20.40;48.50
28374;DHT22;15616;40.148;-102.718;2023-03-14T05:59:00;20.40;48.50
28374;DHT22;15616;40.148;-102.718;2023-03-14T06:01:29;20.40;48.60
28374;DHT22;15616;40.148;-102.718;2023-03-14T06:03:55;20.40;48.70
28374;DHT22;15616;40.148;-102.718;2023-03-14T06:06:22;20.30;48.70
28374;DHT22;15616;40.148;-102.718;2023-03-14T06:08:48;20.30;48.70
28374;DHT22;15616;40.148;-102.718;2023-03-14T06:11:13;20.30;48.70
28374;DHT22;15616;40.148;-102.718;2023-03-14T06:13:39;20.30;48.80
28374;DHT22;15616;40.148;-102.718;2023-03-14T06:16:06;20.30;48.80
28374;DHT22;15616;40.148;-102.718;2023-03-14T06:18:32;20.30;48.80
28374;DHT22;15616;40.148;-102.718;2023-03-14T06:20:57;20.30;48.80
28374;DHT22;15616;40.148;-102.718;2023-03-14T06:23:23;20.30;48.70
28374;DHT22;15616;40.148;-102.718;2023-03-14T06:25:51;20.40;48.70
28374;DHT22;15616;40.148;-102.718;2023-03-14T06:28:17;20.40;48.70
28374;DHT22;15616;40.148;-102.718;2023-03-14T06:30:43;20.40;48.70
28374;DHT22;15616;40.148;-102.718;2023-03-14T06:33:09;20.40;48.70
28374;DHT22;15616;40.148;-102.718;2023-03-14T06:35:35;20.40;48.80
28374;DHT22;15616;40.148;-102.718;2023-03-14T06:38:01;20.40;48.70
28374;DHT22;15616;40.148;-102.718;2023-03-14T06:40:27;20.40;48.80
28374;DHT22;15616;40.148;-102.718;2023-03-14T06:42:53;20.40;48.80
28374;DHT22;15616;40.148;-102.718;2023-03-14T06:45:19;20.40;48.80
28374;DHT22;15616;40.148;-102.718;2023-03-14T06:47:44;20.40;48.80
28374;DHT22;15616;40.148;-102.718;2023-03-14T06:50:11;20.40;48.80
28374;DHT22;15616;40.148;-102.718;2023-03-14T06:52:37;20.40;48.70
28374;DHT22;15616;40.148;-102.718;2023-03-14T06:55:07;20.40;48.60
28374;DHT22;15616;40.148;-102.718;2023-03-14T06:57:33;20.40;48.70
28374;DHT22;15616;40.148;-102.718;2023-03-14T06:59:59;20.40;48.70
28374;DHT22;15616;40.148;-102.718;2023-03-14T07:02:25;20.40;48.70
28374;DHT22;15616;40.148;-102.718;2023-03-14T07:04:51;20.40;48.70
28374;DHT22;15616;40.148;-102.718;2023-03-14T07:07:17;20.40;48.70
28374;DHT22;15616;40.148;-102.718;2023-03-14T07:09:42;20.40;48.70
28374;DHT22;15616;40.148;-102.718;2023-03-14T07:12:08;20.40;48.70
28374;DHT22;15616;40.148;-102.718;2023-03-14T07:14:34;20.40;48.70
28374;DHT22;15616;40.148;-102.718;2023-03-14T07:17:00;20.40;48.70
28374;DHT22;15616;40.148;-102.718;2023-03-14T07:19:26;20.40;48.60
28374;DHT22;15616;40.148;-102.718;2023-03-14T07:21:52;20.40;48.70
28374;DHT22;15616;40.148;-102.718;2023-03-14T07:24:18;20.50;48.70
28374;DHT22;15616;40.148;-102.718;2023-03-14T07:26:44;20.50;48.60
28374;DHT22;15616;40.148;-102.718;2023-03-14T07:29:10;20.50;48.60
28374;DHT22;15616;40.148;-102.718;2023-03-14T07:31:36;20.50;48.60
28374;DHT22;15616;40.148;-102.718;2023-03-14T07:34:02;20.50;48.60
28374;DHT22;15616;40.148;-102.718;2023-03-14T07:36:28;20.50;48.70
28374;DHT22;15616;40.148;-102.718;2023-03-14T07:38:54;20.50;48.70
28374;DHT22;15616;40.148;-102.718;2023-03-14T07:41:20;20.50;48.70
28374;DHT22;15616;40.148;-102.718;2023-03-14T07:43:46;20.50;48.60
28374;DHT22;15616;40.148;-102.718;2023-03-14T07:46:12;20.50;48.60
28374;DHT22;15616;40.148;-102.718;2023-03-14T07:48:38;20.50;48.60
28374;DHT22;15616;40.148;-102.718;2023-03-14T07:51:04;20.50;48.60
28374;DHT22;15616;40.148;-102.718;2023-03-14T07:53:30;20.50;48.60
28374;DHT22;15616;40.148;-102.718;2023-03-14T07:55:56;20.50;48.60
28374;DHT22;15616;40.148;-102.718;2023-03-14T07:58:22;20.60;48.60
28374;DHT22;15616;40.148;-102.718;2023-03-14T08:00:49;20.50;48.50
28374;DHT22;15616;40.148;-102.718;2023-03-14T08:03:15;20.50;48.60
28374;DHT22;15616;40.148;-102.718;2023-03-14T08:05:42;20.50;48.60
28374;DHT22;15616;40.148;-102.718;2023-03-14T08:08:08;20.50;48.60
28374;DHT22;15616;40.148;-102.718;2023-03-14T08:10:34;20.50;48.70
28374;DHT22;15616;40.148;-102.718;2023-03-14T08:13:01;20.50;48.70
28374;DHT22;15616;40.148;-102.718;2023-03-14T08:15:28;20.50;48.70
28374;DHT22;15616;40.148;-102.718;2023-03-14T08:17:55;20.50;48.60
28374;DHT22;15616;40.148;-102.718;2023-03-14T08:20:22;20.50;48.70
28374;DHT22;15616;40.148;-102.718;2023-03-14T08:22:49;20.50;48.70
28374;DHT22;15616;40.148;-102.718;2023-03-14T08:25:15;20.50;48.70
28374;DHT22;15616;40.148;-102.718;2023-03-14T08:27:42;20.50;48.80
28374;DHT22;15616;40.148;-102.718;2023-03-14T08:30:10;20.50;48.90
28374;DHT22;15616;40.148;-102.718;2023-03-14T08:32:37;20.50;48.80
28374;DHT22;15616;40.148;-102.718;2023-03-14T08:35:04;20.40;48.80
28374;DHT22;15616;40.148;-102.718;2023-03-14T08:37:32;20.50;48.90
28374;DHT22;15616;40.148;-102.718;2023-03-14T08:39:58;20.50;48.90
28374;DHT22;15616;40.148;-102.718;2023-03-14T08:42:24;20.50;48.90
28374;DHT22;15616;40.148;-102.718;2023-03-14T08:44:52;20.50;48.80
28374;DHT22;15616;40.148;-102.718;2023-03-14T08:47:18;20.50;48.80
28374;DHT22;15616;40.148;-102.718;2023-03-14T08:49:44;20.50;48.80
28374;DHT22;15616;40.148;-102.718;2023-03-14T08:52:10;20.50;48.80
28374;DHT22;15616;40.148;-102.718;2023-03-14T08:54:35;20.50;48.80
28374;DHT22;15616;40.148;-102.718;2023-03-14T08:57:01;20.50;48.90
28374;DHT22;15616;40.148;-102.718;2023-03-14T08:59:27;20.50;48.90
28374;DHT22;15616;40.148;-102.718;2023-03-14T09:01:53;20.50;48.90
28374;DHT22;15616;40.148;-102.718;2023-03-14T09:04:20;20.50;48.90
28374;DHT22;15616;40.148;-102.718;2023-03-14T09:06:47;20.50;49.00
28374;DHT22;15616;40.148;-102.718;2023-03-14T09:09:13;20.50;49.00
28374;DHT22;15616;40.148;-102.718;2023-03-14T09:11:39;20.50;49.00
28374;DHT22;15616;40.148;-102.718;2023-03-14T09:14:06;20.50;49.00
28374;DHT22;15616;40.148;-102.718;2023-03-14T09:16:33;20.50;48.90
28374;DHT22;15616;40.148;-102.718;2023-03-14T09:18:59;20.50;48.90
28374;DHT22;15616;40.148;-102.718;2023-03-14T09:21:26;20.50;48.90
28374;DHT22;15616;40.148;-102.718;2023-03-14T09:23:52;20.60;48.90
28374;DHT22;15616;40.148;-102.718;2023-03-14T09:26:19;20.60;48.90
28374;DHT22;15616;40.148;-102.718;2023-03-14T09:28:45;20.60;48.80
28374;DHT22;15616;40.148;-102.718;2023-03-14T09:31:12;20.60;48.80
28374;DHT22;15616;40.148;-102.718;2023-03-14T09:33:38;20.60;48.90
28374;DHT22;15616;40.148;-102.718;2023-03-14T09:36:06;20.60;48.90
28374;DHT22;15616;40.148;-102.718;2023-03-14T09:38:33;20.60;48.80
28374;DHT22;15616;40.148;-102.718;2023-03-14T09:41:01;20.60;48.80
28374;DHT22;15616;40.148;-102.718;2023-03-14T09:43:33;20.60;48.80
28374;DHT22;15616;40.148;-102.718;2023-03-14T09:46:02;20.60;48.80
28374;DHT22;15616;40.148;-102.718;2023-03-14T09:48:31;20.60;49.00
28374;DHT22;15616;40.148;-102.718;2023-03-14T09:51:00;20.60;49.00
28374;DHT22;15616;40.148;-102.718;2023-03-14T09:53:39;20.60;48.90
28374;DHT22;15616;40.148;-102.718;2023-03-14T09:56:21;20.60;49.00
28374;DHT22;15616;40.148;-102.718;2023-03-14T09:58:52;20.60;49.00
28374;DHT22;15616;40.148;-102.718;2023-03-14T10:01:27;20.60;49.00
28374;DHT22;15616;40.148;-102.718;2023-03-14T10:04:02;20.60;49.00
28374;DHT22;15616;40.148;-102.718;2023-03-14T10:06:30;20.60;48.90
28374;DHT22;15616;40.148;-102.718;2023-03-14T10:11:44;20.70;48.90
28374;DHT22;15616;40.148;-102.718;2023-03-14T10:14:11;20.60;49.60
28374;DHT22;15616;40.148;-102.718;2023-03-14T10:16:46;20.70;48.90
28374;DHT22;15616;40.148;-102.718;2023-03-14T10:19:16;20.70;48.90
28374;DHT22;15616;40.148;-102.718;2023-03-14T10:21:53;20.70;48.80
28374;DHT22;15616;40.148;-102.718;2023-03-14T10:24:26;20.70;48.80
28374;DHT22;15616;40.148;-102.718;2023-03-14T10:27:03;20.70;48.80
28374;DHT22;15616;40.148;-102.718;2023-03-14T10:29:31;20.70;48.80
28374;DHT22;15616;40.148;-102.718;2023-03-14T10:34:33;20.70;48.80
28374;DHT22;15616;40.148;-102.718;2023-03-14T10:39:42;20.80;48.80
28374;DHT22;15616;40.148;-102.718;2023-03-14T10:42:26;20.70;48.70
28374;DHT22;15616;40.148;-102.718;2023-03-14T10:45:33;20.80;48.60
28374;DHT22;15616;40.148;-102.718;2023-03-14T10:48:29;20.80;48.50
28374;DHT22;15616;40.148;-102.718;2023-03-14T10:53:25;20.80;48.50
28374;DHT22;15616;40.148;-102.718;2023-03-14T10:55:51;20.80;48.40
28374;DHT22;15616;40.148;-102.718;2023-03-14T10:58:28;20.80;48.40
28374;DHT22;15616;40.148;-102.718;2023-03-14T11:09:53;20.90;48.40
28374;DHT22;15616;40.148;-102.718;2023-03-14T11:12:52;20.90;48.50
28374;DHT22;15616;40.148;-102.718;2023-03-14T11:21:23;20.90;48.40
28374;DHT22;15616;40.148;-102.718;2023-03-14T11:27:26;20.80;48.40
28374;DHT22;15616;40.148;-102.718;2023-03-14T11:32:54;20.90;48.50
28374;DHT22;15616;40.148;-102.718;2023-03-14T11:38:41;20.80;48.40
28374;DHT22;15616;40.148;-102.718;2023-03-14T11:41:24;20.90;48.40
28374;DHT22;15616;40.148;-102.718;2023-03-14T11:43:58;20.90;48.50
28374;DHT22;15616;40.148;-102.718;2023-03-14T11:46:26;20.80;48.50
28374;DHT22;15616;40.148;-102.718;2023-03-14T11:49:27;20.80;48.50
28374;DHT22;15616;40.148;-102.718;2023-03-14T11:52:01;20.80;48.50
28374;DHT22;15616;40.148;-102.718;2023-03-14T11:57:02;20.80;48.50
28374;DHT22;15616;40.148;-102.718;2023-03-14T12:02:50;20.80;48.50
28374;DHT22;15616;40.148;-102.718;2023-03-14T12:10:39;20.90;48.50
28374;DHT22;15616;40.148;-102.718;2023-03-14T12:13:10;20.90;48.50
28374;DHT22;15616;40.148;-102.718;2023-03-14T12:15:46;20.90;48.40
28374;DHT22;15616;40.148;-102.718;2023-03-14T12:18:27;20.90;48.40
28374;DHT22;15616;40.148;-102.718;2023-03-14T12:20:59;20.90;48.40
28374;DHT22;15616;40.148;-102.718;2023-03-14T12:23:26;20.90;48.40
28374;DHT22;15616;40.148;-102.718;2023-03-14T12:28:42;20.90;48.30
28374;DHT22;15616;40.148;-102.718;2023-03-14T12:39:19;21.00;48.30
28374;DHT22;15616;40.148;-102.718;2023-03-14T12:47:14;20.90;48.20
28374;DHT22;15616;40.148;-102.718;2023-03-14T12:49:53;21.00;48.30
28374;DHT22;15616;40.148;-102.718;2023-03-14T12:53:18;20.90;48.20
28374;DHT22;15616;40.148;-102.718;2023-03-14T12:58:43;21.00;48.30
28374;DHT22;15616;40.148;-102.718;2023-03-14T13:01:16;20.90;48.20
28374;DHT22;15616;40.148;-102.718;2023-03-14T13:03:52;21.00;48.30
28374;DHT22;15616;40.148;-102.718;2023-03-14T13:06:46;21.00;48.30
28374;DHT22;15616;40.148;-102.718;2023-03-14T13:12:22;21.10;48.20
28374;DHT22;15616;40.148;-102.718;2023-03-14T13:14:50;21.10;48.10
28374;DHT22;15616;40.148;-102.718;2023-03-14T13:17:27;21.10;48.10
28374;DHT22;15616;40.148;-102.718;2023-03-14T13:19:57;21.10;47.90
28374;DHT22;15616;40.148;-102.718;2023-03-14T13:22:31;21.10;47.80
28374;DHT22;15616;40.148;-102.718;2023-03-14T13:25:10;21.10;47.70
28374;DHT22;15616;40.148;-102.718;2023-03-14T13:27:36;21.10;47.70
28374;DHT22;15616;40.148;-102.718;2023-03-14T13:32:45;21.20;47.80
28374;DHT22;15616;40.148;-102.718;2023-03-14T13:35:24;21.10;47.70
28374;DHT22;15616;40.148;-102.718;2023-03-14T13:37:56;21.20;47.80
28374;DHT22;15616;40.148;-102.718;2023-03-14T13:40:33;21.20;47.80
28374;DHT22;15616;40.148;-102.718;2023-03-14T13:43:05;21.10;47.70
28374;DHT22;15616;40.148;-102.718;2023-03-14T13:45:40;21.10;47.70
28374;DHT22;15616;40.148;-102.718;2023-03-14T13:48:09;21.20;47.70
28374;DHT22;15616;40.148;-102.718;2023-03-14T13:50:37;21.20;47.60
28374;DHT22;15616;40.148;-102.718;2023-03-14T13:53:03;21.20;47.60
28374;DHT22;15616;40.148;-102.718;2023-03-14T13:55:29;21.20;47.60
28374;DHT22;15616;40.148;-102.718;2023-03-14T13:57:55;21.20;47.60
28374;DHT22;15616;40.148;-102.718;2023-03-14T14:00:26;21.20;48.30
28374;DHT22;15616;40.148;-102.718;2023-03-14T14:02:57;21.20;47.60
28374;DHT22;15616;40.148;-102.718;2023-03-14T14:05:27;21.20;47.60
28374;DHT22;15616;40.148;-102.718;2023-03-14T14:07:53;21.20;47.60
28374;DHT22;15616;40.148;-102.718;2023-03-14T14:10:20;21.20;47.60
28374;DHT22;15616;40.148;-102.718;2023-03-14T14:12:50;21.20;47.60
28374;DHT22;15616;40.148;-102.718;2023-03-14T14:15:23;21.20;47.60
28374;DHT22;15616;40.148;-102.718;2023-03-14T14:17:57;21.20;47.60
28374;DHT22;15616;40.148;-102.718;2023-03-14T14:20:35;21.30;47.50
28374;DHT22;15616;40.148;-102.718;2023-03-14T14:23:15;21.30;47.50
28374;DHT22;15616;40.148;-102.718;2023-03-14T14:25:45;21.30;47.50
28374;DHT22;15616;40.148;-102.718;2023-03-14T14:28:37;21.30;47.40
28374;DHT22;15616;40.148;-102.718;2023-03-14T14:31:22;21.30;47.30
28374;DHT22;15616;40.148;-102.718;2023-03-14T14:33:59;21.30;47.40
28374;DHT22;15616;40.148;-102.718;2023-03-14T14:39:20;21.30;47.50
28374;DHT22;15616;40.148;-102.718;2023-03-14T14:41:49;21.30;47.30
28374;DHT22;15616;40.148;-102.718;2023-03-14T14:44:24;21.30;47.30
28374;DHT22;15616;40.148;-102.718;2023-03-14T14:46:55;21.30;47.30
28374;DHT22;15616;40.148;-102.718;2023-03-14T14:49:28;21.20;47.20
28374;DHT22;15616;40.148;-102.718;2023-03-14T14:52:04;21.30;47.30
28374;DHT22;15616;40.148;-102.718;2023-03-14T14:54:34;21.20;47.20
28374;DHT22;15616;40.148;-102.718;2023-03-14T14:57:05;21.20;47.20
28374;DHT22;15616;40.148;-102.718;2023-03-14T14:59:31;21.20;47.20
28374;DHT22;15616;40.148;-102.718;2023-03-14T15:02:01;21.20;47.30
28374;DHT22;15616;40.148;-102.718;2023-03-14T15:04:30;21.20;47.40
28374;DHT22;15616;40.148;-102.718;2023-03-14T15:06:56;21.20;47.40
28374;DHT22;15616;40.148;-102.718;2023-03-14T15:09:22;21.20;47.40
28374;DHT22;15616;40.148;-102.718;2023-03-14T15:11:49;21.20;47.40
28374;DHT22;15616;40.148;-102.718;2023-03-14T15:14:15;21.20;47.40
28374;DHT22;15616;40.148;-102.718;2023-03-14T15:16:41;21.20;47.40
28374;DHT22;15616;40.148;-102.718;2023-03-14T15:19:36;21.20;47.40
28374;DHT22;15616;40.148;-102.718;2023-03-14T15:22:04;21.30;47.40
28374;DHT22;15616;40.148;-102.718;2023-03-14T15:24:31;21.20;47.50
28374;DHT22;15616;40.148;-102.718;2023-03-14T15:26:57;21.20;47.40
28374;DHT22;15616;40.148;-102.718;2023-03-14T15:29:23;21.20;47.40
28374;DHT22;15616;40.148;-102.718;2023-03-14T15:31:49;21.20;47.40
28374;DHT22;15616;40.148;-102.718;2023-03-14T15:34:15;21.30;47.30
28374;DHT22;15616;40.148;-102.718;2023-03-14T15:36:42;21.30;47.30
28374;DHT22;15616;40.148;-102.718;2023-03-14T15:39:10;21.30;47.30
28374;DHT22;15616;40.148;-102.718;2023-03-14T15:41:37;21.30;47.30
28374;DHT22;15616;40.148;-102.718;2023-03-14T15:44:03;21.20;47.20
28374;DHT22;15616;40.148;-102.718;2023-03-14T15:46:28;21.30;47.20
28374;DHT22;15616;40.148;-102.718;2023-03-14T15:48:54;21.30;47.30
28374;DHT22;15616;40.148;-102.718;2023-03-14T15:51:20;21.30;47.40
28374;DHT22;15616;40.148;-102.718;2023-03-14T15:53:46;21.20;47.30
28374;DHT22;15616;40.148;-102.718;2023-03-14T15:56:15;21.20;47.30
28374;DHT22;15616;40.148;-102.718;2023-03-14T15:58:41;21.20;47.30
28374;DHT22;15616;40.148;-102.718;2023-03-14T16:01:08;21.20;47.30
28374;DHT22;15616;40.148;-102.718;2023-03-14T16:06:10;21.20;47.30
28374;DHT22;15616;40.148;-102.718;2023-03-14T16:08:36;21.20;47.30
28374;DHT22;15616;40.148;-102.718;2023-03-14T16:11:02;21.20;47.30
28374;DHT22;15616;40.148;-102.718;2023-03-14T16:13:27;21.20;47.30
28374;DHT22;15616;40.148;-102.718;2023-03-14T16:15:56;21.20;47.30
28374;DHT22;15616;40.148;-102.718;2023-03-14T16:18:23;21.20;47.30
28374;DHT22;15616;40.148;-102.718;2023-03-14T16:21:00;21.20;47.40